Time;durP1;ratioP1;P1;durP2;ratioP2;P2;SDS_P1;SDS_P2;PMS_P1;PMS_P2;Temp;Humidity;BMP_temperature;BMP_pressure;BME280_temperature;BME280_humidity;BME280_pressure;Samples;Min_cycle;Max_cycle;Signal;HPM_P1;HPM_P2
2021/12/12 00:00:35;;;;;;;7.50;1.87;;;4.50;99.90;;;;;;5096317;28;20478;-82
2021/12/12 00:03:14;;;;;;;8.70;2.07;;;4.60;99.90;;;;;;5113999;28;20106;-82
2021/12/12 00:05:44;;;;;;;5.10;1.77;;;4.60;99.70;;;;;;5097279;28;20020;-82
2021/12/12 00:08:12;;;;;;;5.43;1.50;;;4.60;99.70;;;;;;5114327;28;20034;-82
2021/12/12 00:10:41;;;;;;;6.77;2.20;;;4.60;99.60;;;;;;5114730;28;20019;-82
2021/12/12 00:13:13;;;;;;;6.50;1.43;;;4.60;99.20;;;;;;5095937;28;20047;-82
2021/12/12 00:15:40;;;;;;;3.38;1.38;;;4.60;98.70;;;;;;5096933;28;20019;-82
2021/12/12 00:18:06;;;;;;;5.37;1.40;;;4.50;98.60;;;;;;5096126;28;20031;-82
2021/12/12 00:20:34;;;;;;;4.17;1.40;;;4.50;98.70;;;;;;5096692;28;20027;-82
2021/12/12 00:23:00;;;;;;;7.83;1.50;;;4.50;98.60;;;;;;5095987;28;20341;-82
2021/12/12 00:25:33;;;;;;;5.13;1.53;;;4.40;98.60;;;;;;5096225;28;20072;-82
2021/12/12 00:27:59;;;;;;;3.53;1.30;;;4.40;98.70;;;;;;5095951;28;20023;-83
2021/12/12 00:30:26;;;;;;;4.93;1.33;;;4.40;98.70;;;;;;5096289;28;20444;-82
2021/12/12 00:32:53;;;;;;;3.20;1.63;;;4.40;98.80;;;;;;5115007;28;20471;-82
2021/12/12 00:35:20;;;;;;;3.70;1.10;;;4.30;98.80;;;;;;5113483;28;20110;-82
2021/12/12 00:37:47;;;;;;;7.43;1.70;;;4.30;99.00;;;;;;5114453;28;20019;-82
2021/12/12 00:40:22;;;;;;;6.90;1.50;;;4.30;99.00;;;;;;5096126;28;20024;-82
2021/12/12 00:42:50;;;;;;;4.20;1.40;;;4.30;98.80;;;;;;5096291;28;20023;-82
2021/12/12 00:45:17;;;;;;;4.83;1.43;;;4.30;98.90;;;;;;5095913;28;20372;-82
2021/12/12 00:47:45;;;;;;;3.40;1.40;;;4.30;99.10;;;;;;5096488;28;20018;-82
2021/12/12 00:50:35;;;;;;;6.37;1.60;;;4.20;99.00;;;;;;5114285;28;20072;-82
2021/12/12 00:53:04;;;;;;;4.00;1.20;;;4.20;98.90;;;;;;5086376;28;20027;-83
2021/12/12 00:55:30;;;;;;;6.93;1.30;;;4.30;99.00;;;;;;5113632;28;20047;-82
2021/12/12 00:57:56;;;;;;;4.57;1.80;;;4.30;99.00;;;;;;5113665;28;20080;-82
2021/12/12 01:00:27;;;;;;;3.67;1.17;;;4.30;99.00;;;;;;5095577;28;20020;-82
2021/12/12 01:02:54;;;;;;;2.60;1.20;;;4.30;99.00;;;;;;5096144;28;20406;-82
2021/12/12 01:05:21;;;;;;;5.20;1.60;;;4.30;98.70;;;;;;5113537;28;20236;-82
2021/12/12 01:07:48;;;;;;;4.17;1.80;;;4.30;98.90;;;;;;5114452;28;20041;-82
2021/12/12 01:10:21;;;;;;;2.87;1.37;;;4.30;98.90;;;;;;5095750;28;20668;-82
2021/12/12 01:12:48;;;;;;;4.50;1.80;;;4.30;99.00;;;;;;5095378;28;20036;-82
2021/12/12 01:15:17;;;;;;;5.17;1.50;;;4.30;99.00;;;;;;5095242;28;20019;-82
2021/12/12 01:17:47;;;;;;;2.53;1.53;;;4.30;98.90;;;;;;5095624;28;20015;-82
2021/12/12 01:20:36;;;;;;;4.90;1.30;;;4.30;99.00;;;;;;5095097;28;20028;-82
2021/12/12 01:23:17;;;;;;;6.13;1.40;;;4.30;99.00;;;;;;5113421;28;20019;-82
2021/12/12 01:25:47;;;;;;;6.73;1.30;;;4.30;99.00;;;;;;5113763;28;20015;-82
2021/12/12 01:28:16;;;;;;;8.20;1.70;;;4.30;98.90;;;;;;5113326;28;20020;-82
2021/12/12 01:30:42;;;;;;;4.77;1.43;;;4.30;98.90;;;;;;5114152;28;20023;-82
2021/12/12 01:33:10;;;;;;;4.77;1.50;;;4.30;99.00;;;;;;5095136;28;20073;-82
2021/12/12 01:35:38;;;;;;;4.93;1.63;;;4.30;98.80;;;;;;5095543;28;20027;-82
2021/12/12 01:40:56;;;;;;;9.10;1.20;;;4.30;98.90;;;;;;5113954;28;20038;-82
2021/12/12 01:43:27;;;;;;;6.73;1.40;;;4.30;99.00;;;;;;5113309;28;20019;-82
2021/12/12 01:46:11;;;;;;;3.13;1.53;;;4.30;99.10;;;;;;5095800;28;20023;-82
2021/12/12 01:48:42;;;;;;;5.93;2.17;;;4.30;99.30;;;;;;5096180;28;20023;-82
2021/12/12 01:51:09;;;;;;;4.77;2.03;;;4.30;99.50;;;;;;5095469;28;20042;-82
2021/12/12 01:53:41;;;;;;;5.63;2.33;;;4.30;99.80;;;;;;5094990;28;20023;-82
2021/12/12 01:56:28;;;;;;;;;;;4.20;99.90;;;;;;5113416;28;20027;-82
2021/12/12 01:58:58;;;;;;;7.83;2.07;;;4.20;99.90;;;;;;5113298;28;19907;-82
2021/12/12 02:01:28;;;;;;;7.27;2.00;;;4.20;99.90;;;;;;5095669;28;20030;-82
2021/12/12 02:04:00;;;;;;;5.13;2.07;;;4.20;99.90;;;;;;5095565;28;20055;-82
2021/12/12 02:06:26;;;;;;;5.10;2.20;;;4.10;99.90;;;;;;5094967;28;20432;-82
2021/12/12 02:08:53;;;;;;;5.93;1.97;;;4.20;99.90;;;;;;5113661;28;20085;-82
2021/12/12 02:11:23;;;;;;;5.70;2.43;;;4.20;99.90;;;;;;5094841;28;20413;-82
2021/12/12 02:13:51;;;;;;;4.47;2.33;;;4.20;99.90;;;;;;5091228;28;20477;-82
2021/12/12 02:16:19;;;;;;;5.67;2.00;;;4.20;99.90;;;;;;5091120;28;20021;-82
2021/12/12 02:18:50;;;;;;;6.93;1.87;;;4.10;99.90;;;;;;5091464;28;20054;-82
2021/12/12 02:21:29;;;;;;;6.27;2.00;;;4.10;99.90;;;;;;5092551;28;20028;-82
2021/12/12 02:35:10;;;;;;;6.10;2.43;;;4.10;99.90;;;;;;5096231;28;20066;-82
2021/12/12 02:37:36;;;;;;;6.43;2.60;;;4.10;99.90;;;;;;5096274;28;20016;-82
2021/12/12 02:40:06;;;;;;;5.53;2.30;;;4.10;99.90;;;;;;5095082;28;20059;-82
2021/12/12 02:42:32;;;;;;;6.23;2.40;;;4.20;99.90;;;;;;5095063;28;20028;-82
2021/12/12 02:45:00;;;;;;;4.93;2.23;;;4.20;99.90;;;;;;5095828;28;20506;-82
2021/12/12 02:47:34;;;;;;;6.63;2.90;;;4.20;99.90;;;;;;5094671;28;20077;-82
2021/12/12 02:50:19;;;;;;;5.63;2.27;;;4.10;99.90;;;;;;5095287;28;20035;-82
2021/12/12 02:52:55;;;;;;;6.73;2.63;;;4.10;99.90;;;;;;5094983;28;20028;-82
2021/12/12 02:55:30;;;;;;;7.63;2.03;;;4.10;99.90;;;;;;5094376;28;20016;-83
2021/12/12 02:57:58;;;;;;;7.13;2.20;;;4.10;99.90;;;;;;5095902;28;20020;-83
2021/12/12 03:00:27;;;;;;;5.77;2.50;;;4.10;99.90;;;;;;5095957;28;20132;-83
2021/12/12 03:02:58;;;;;;;5.30;2.20;;;4.00;99.90;;;;;;5095490;28;20020;-82
2021/12/12 03:05:27;;;;;;;5.60;2.43;;;4.00;99.90;;;;;;5094846;28;20020;-82
2021/12/12 03:07:53;;;;;;;9.93;2.77;;;4.00;99.90;;;;;;5095013;28;20027;-82
2021/12/12 03:10:23;;;;;;;7.10;2.70;;;4.00;99.90;;;;;;5093941;28;20024;-82
2021/12/12 03:12:49;;;;;;;7.17;2.53;;;3.90;99.90;;;;;;5094212;28;20456;-82
2021/12/12 03:15:18;;;;;;;4.67;2.17;;;3.90;99.90;;;;;;5094978;28;20067;-82
2021/12/12 03:17:47;;;;;;;8.57;1.97;;;3.90;99.90;;;;;;5094315;28;20052;-82
2021/12/12 03:20:31;;;;;;;5.00;2.00;;;3.80;99.90;;;;;;5094353;28;20028;-82
2021/12/12 03:23:03;;;;;;;5.33;2.20;;;3.80;99.90;;;;;;5095079;28;20020;-82
2021/12/12 03:25:31;;;;;;;5.07;2.00;;;3.80;99.90;;;;;;5095505;28;20406;-82
2021/12/12 03:27:58;;;;;;;5.87;2.33;;;3.80;99.90;;;;;;5094738;28;20115;-82
2021/12/12 03:30:24;;;;;;;8.63;2.43;;;3.80;99.90;;;;;;5093883;28;20020;-82
2021/12/12 03:32:50;;;;;;;9.27;2.20;;;3.80;99.90;;;;;;5095149;28;20032;-82
2021/12/12 03:35:17;;;;;;;6.50;2.27;;;3.80;99.90;;;;;;5092446;28;20019;-82
2021/12/12 03:37:44;;;;;;;4.27;2.40;;;3.70;99.90;;;;;;5093857;28;20016;-82
2021/12/12 03:40:21;;;;;;;7.03;2.40;;;3.80;99.90;;;;;;5093957;28;20032;-83
2021/12/12 03:42:49;;;;;;;6.73;2.50;;;3.70;99.90;;;;;;5095469;28;20079;-82
2021/12/12 03:45:17;;;;;;;14.33;2.60;;;3.70;99.90;;;;;;5095034;28;20020;-82
2021/12/12 03:47:51;;;;;;;3.57;2.40;;;3.70;99.90;;;;;;5093799;28;20047;-82
2021/12/12 03:50:26;;;;;;;5.77;2.37;;;3.70;99.90;;;;;;5094870;28;20040;-82
2021/12/12 03:52:52;;;;;;;4.73;2.37;;;3.60;99.90;;;;;;5093837;28;20365;-82
2021/12/12 03:55:20;;;;;;;6.80;2.23;;;3.60;99.90;;;;;;5093067;28;20467;-82
2021/12/12 03:57:48;;;;;;;6.07;2.67;;;3.60;99.90;;;;;;5093415;28;20360;-82
2021/12/12 04:00:24;;;;;;;6.33;2.83;;;3.60;99.90;;;;;;5092969;28;20016;-82
2021/12/12 04:02:50;;;;;;;6.13;2.70;;;3.60;99.90;;;;;;5094983;28;20031;-82
2021/12/12 04:05:16;;;;;;;7.20;2.60;;;3.60;99.90;;;;;;5093940;28;20024;-82
2021/12/12 04:07:42;;;;;;;6.30;2.73;;;3.60;99.90;;;;;;5093628;28;20043;-82
2021/12/12 04:10:12;;;;;;;6.77;2.73;;;3.50;99.90;;;;;;5093708;28;20020;-82
2021/12/12 04:12:39;;;;;;;10.40;3.30;;;3.50;99.90;;;;;;5093044;28;20093;-82
2021/12/12 04:15:06;;;;;;;8.53;3.10;;;3.50;99.90;;;;;;5094020;28;20027;-82
2021/12/12 04:17:32;;;;;;;6.57;2.73;;;3.50;99.90;;;;;;5092623;28;20121;-82
2021/12/12 04:20:01;;;;;;;6.17;3.00;;;3.40;99.90;;;;;;5092895;28;20100;-82
2021/12/12 04:22:33;;;;;;;6.87;3.07;;;3.50;99.90;;;;;;5093359;28;20023;-82
2021/12/12 04:24:58;;;;;;;9.75;2.90;;;3.40;99.90;;;;;;5094080;28;20012;-82
2021/12/12 04:27:25;;;;;;;6.37;3.17;;;3.40;99.90;;;;;;5092446;28;20027;-82
2021/12/12 04:29:53;;;;;;;7.37;3.17;;;3.40;99.90;;;;;;5094549;28;20028;-82
2021/12/12 04:32:25;;;;;;;6.87;3.27;;;3.40;99.90;;;;;;5092863;28;20111;-82
2021/12/12 04:34:54;;;;;;;9.25;3.85;;;3.40;99.90;;;;;;5093247;28;20425;-82
2021/12/12 04:37:21;;;;;;;7.17;3.70;;;3.30;99.90;;;;;;5092723;28;20024;-82
2021/12/12 04:39:50;;;;;;;6.13;3.63;;;3.30;99.90;;;;;;5092700;28;20027;-82
2021/12/12 04:42:24;;;;;;;6.60;3.53;;;3.30;99.90;;;;;;5092373;28;20039;-83
2021/12/12 04:44:53;;;;;;;9.93;3.70;;;3.30;99.90;;;;;;5093005;28;20063;-82
2021/12/12 04:50:35;;;;;;;8.43;4.23;;;3.30;99.90;;;;;;5093811;28;20081;-82
2021/12/12 04:53:15;;;;;;;7.37;3.80;;;3.20;99.90;;;;;;5092676;28;20020;-82
2021/12/12 04:56:25;;;;;;;8.17;4.07;;;3.30;99.90;;;;;;5093636;28;20024;-82
2021/12/12 04:59:10;;;;;;;9.77;4.10;;;3.20;99.90;;;;;;5091380;28;20086;-82
2021/12/12 05:01:40;;;;;;;7.23;3.97;;;3.30;99.90;;;;;;5092505;28;20028;-82
2021/12/12 05:04:14;;;;;;;8.13;3.97;;;3.30;99.90;;;;;;5092395;28;20087;-82
2021/12/12 05:06:43;;;;;;;11.13;4.20;;;3.20;99.90;;;;;;5092217;28;20502;-82
2021/12/12 05:09:24;;;;;;;9.90;4.20;;;3.30;99.90;;;;;;5092892;28;20077;-82
2021/12/12 05:12:30;;;;;;;7.67;4.40;;;3.20;99.90;;;;;;5093816;28;20032;-82
2021/12/12 05:15:07;;;;;;;12.63;4.27;;;3.20;99.90;;;;;;5040838;28;20035;-82
2021/12/12 05:17:43;;;;;;;10.63;4.87;;;3.20;99.90;;;;;;5095184;28;20019;-82
2021/12/12 05:20:24;;;;;;;10.37;4.33;;;3.20;99.90;;;;;;5095599;28;20039;-82
2021/12/12 05:22:52;;;;;;;7.97;4.17;;;3.20;99.90;;;;;;5096037;28;20452;-82
2021/12/12 05:25:23;;;;;;;6.87;4.07;;;3.20;99.90;;;;;;5094829;28;20024;-82
2021/12/12 05:27:53;;;;;;;7.80;4.20;;;3.20;99.90;;;;;;5095899;28;20016;-79
2021/12/12 05:30:24;;;;;;;13.70;4.50;;;3.10;99.90;;;;;;5095273;28;20070;-81
2021/12/12 05:32:51;;;;;;;8.52;3.80;;;3.10;99.90;;;;;;5095678;28;20016;-81
2021/12/12 05:35:20;;;;;;;10.77;4.23;;;3.10;99.90;;;;;;5095423;28;20019;-83
2021/12/12 05:37:51;;;;;;;6.87;3.67;;;3.00;99.90;;;;;;5113325;28;20043;-81
2021/12/12 05:40:21;;;;;;;9.73;3.90;;;3.00;99.90;;;;;;5112671;28;20038;-82
2021/12/12 05:42:49;;;;;;;8.60;4.23;;;3.10;99.90;;;;;;5095389;28;20024;-81
2021/12/12 05:45:16;;;;;;;9.33;4.27;;;3.10;99.90;;;;;;5095267;28;20027;-82
2021/12/12 05:47:46;;;;;;;11.33;4.07;;;3.10;99.90;;;;;;5095212;28;20023;-81
2021/12/12 05:50:14;;;;;;;7.43;3.33;;;3.10;99.90;;;;;;5095835;28;20089;-81
2021/12/12 05:52:43;;;;;;;6.23;3.40;;;3.10;99.90;;;;;;5095474;28;20051;-82
2021/12/12 05:55:11;;;;;;;6.00;3.27;;;3.10;99.90;;;;;;5095682;28;20020;-80
2021/12/12 05:57:37;;;;;;;6.87;3.60;;;3.10;99.90;;;;;;5096407;28;20105;-81
2021/12/12 06:00:09;;;;;;;8.50;3.13;;;3.20;99.90;;;;;;5099064;28;20035;-81
2021/12/12 06:02:35;;;;;;;6.97;3.10;;;3.10;99.90;;;;;;5098981;28;20027;-80
2021/12/12 06:05:01;;;;;;;7.87;2.80;;;3.20;99.90;;;;;;5117387;28;20028;-81
2021/12/12 06:07:29;;;;;;;6.37;3.33;;;3.10;99.90;;;;;;5116813;28;20023;-81
2021/12/12 06:09:55;;;;;;;8.17;3.00;;;3.20;99.90;;;;;;5099390;28;20035;-81
2021/12/12 06:12:21;;;;;;;6.23;2.67;;;3.20;99.90;;;;;;5116698;28;20039;-82
2021/12/12 06:14:48;;;;;;;9.40;3.00;;;3.20;99.90;;;;;;5099573;28;20023;-81
2021/12/12 06:17:17;;;;;;;8.83;2.90;;;3.20;99.90;;;;;;5099049;28;20371;-81
2021/12/12 06:19:44;;;;;;;6.23;2.70;;;3.20;99.90;;;;;;5098495;28;20059;-81
2021/12/12 06:22:11;;;;;;;7.30;3.30;;;3.30;99.90;;;;;;5117182;28;20016;-81
2021/12/12 06:24:40;;;;;;;6.27;2.70;;;3.20;99.90;;;;;;5098132;28;20051;-81
2021/12/12 06:27:15;;;;;;;5.37;3.07;;;3.30;99.90;;;;;;5098707;28;20106;-81
2021/12/12 06:29:42;;;;;;;7.50;2.83;;;3.20;99.90;;;;;;5098608;28;20402;-81
2021/12/12 06:32:08;;;;;;;6.50;3.00;;;3.20;99.90;;;;;;5099307;28;20019;-81
2021/12/12 06:34:34;;;;;;;7.63;3.03;;;3.20;99.90;;;;;;5116707;28;20028;-81
2021/12/12 06:37:01;;;;;;;7.13;2.60;;;3.30;99.90;;;;;;5116269;28;20565;-81
2021/12/12 06:39:27;;;;;;;4.50;2.40;;;3.20;99.90;;;;;;5098014;28;20023;-81
2021/12/12 06:41:53;;;;;;;7.77;3.00;;;3.30;99.90;;;;;;5098409;28;20051;-82
2021/12/12 06:44:20;;;;;;;4.93;2.87;;;3.30;99.90;;;;;;5098279;28;20027;-81
2021/12/12 06:46:46;;;;;;;6.00;2.73;;;3.30;99.90;;;;;;5098562;28;20028;-81
2021/12/12 06:49:16;;;;;;;7.27;2.80;;;3.30;99.90;;;;;;5098417;28;20027;-82
2021/12/12 06:51:46;;;;;;;4.73;2.50;;;3.30;99.90;;;;;;5098197;28;20076;-81
2021/12/12 06:54:15;;;;;;;8.30;3.20;;;3.30;99.90;;;;;;5099244;28;20035;-82
2021/12/12 06:56:41;;;;;;;5.53;2.70;;;3.30;99.90;;;;;;5097682;28;20407;-81
2021/12/12 06:59:07;;;;;;;13.73;3.30;;;3.40;99.90;;;;;;5097728;28;20023;-81
2021/12/12 07:01:34;;;;;;;4.87;3.00;;;3.40;99.90;;;;;;5097762;28;20028;-81
2021/12/12 07:04:01;;;;;;;6.57;3.20;;;3.50;99.90;;;;;;5097670;28;20076;-81
2021/12/12 07:06:29;;;;;;;5.77;3.30;;;3.50;99.90;;;;;;5097390;28;20048;-81
2021/12/12 07:09:01;;;;;;;8.13;2.90;;;3.50;99.90;;;;;;5097155;28;20033;-82
2021/12/12 07:11:27;;;;;;;5.22;3.15;;;3.50;99.90;;;;;;5115911;28;20020;-82
2021/12/12 07:13:54;;;;;;;11.37;4.53;;;3.50;99.90;;;;;;5097513;28;20043;-82
2021/12/12 07:16:21;;;;;;;6.83;3.50;;;3.50;99.90;;;;;;5115783;28;20517;-82
2021/12/12 07:18:48;;;;;;;8.43;3.17;;;3.50;99.90;;;;;;5097322;28;20028;-82
2021/12/12 07:21:15;;;;;;;6.27;3.10;;;3.50;99.90;;;;;;5099497;28;20023;-82
2021/12/12 07:23:43;;;;;;;6.07;3.27;;;3.50;99.90;;;;;;5097851;28;20022;-82
2021/12/12 07:26:11;;;;;;;8.93;3.60;;;3.50;99.90;;;;;;5097409;28;20023;-82
2021/12/12 07:28:39;;;;;;;5.90;3.43;;;3.60;99.90;;;;;;5115103;28;20059;-82
2021/12/12 07:31:08;;;;;;;10.03;3.90;;;3.60;99.90;;;;;;5098021;28;20027;-82
2021/12/12 07:33:34;;;;;;;8.37;3.27;;;3.60;99.90;;;;;;5097236;28;20023;-82
2021/12/12 07:36:03;;;;;;;7.50;3.10;;;3.70;99.90;;;;;;5115915;28;20016;-82
2021/12/12 07:38:31;;;;;;;7.63;3.47;;;3.70;99.90;;;;;;5096388;28;20091;-83
2021/12/12 07:40:58;;;;;;;10.50;3.47;;;3.80;99.90;;;;;;5097310;28;20115;-82
2021/12/12 07:43:27;;;;;;;5.97;3.30;;;3.80;99.90;;;;;;5097737;28;20055;-82
2021/12/12 07:45:53;;;;;;;9.23;3.20;;;3.70;99.90;;;;;;5115088;28;20077;-82
2021/12/12 07:48:19;;;;;;;10.23;3.43;;;3.80;99.90;;;;;;5097072;28;20069;-82
2021/12/12 07:50:46;;;;;;;6.70;3.23;;;3.70;99.90;;;;;;5097172;28;20169;-82
2021/12/12 07:53:12;;;;;;;8.20;3.17;;;3.80;99.90;;;;;;5097416;28;20073;-82
2021/12/12 07:55:38;;;;;;;5.97;3.00;;;3.80;99.90;;;;;;5096623;28;20019;-82
2021/12/12 07:58:06;;;;;;;5.80;3.10;;;3.70;99.90;;;;;;5096596;28;20020;-82
2021/12/12 08:00:32;;;;;;;7.13;3.00;;;3.80;99.90;;;;;;5096991;28;20019;-82
2021/12/12 08:02:58;;;;;;;7.67;2.73;;;3.80;99.90;;;;;;5115381;28;20053;-82
2021/12/12 08:05:28;;;;;;;3.53;2.30;;;3.70;99.90;;;;;;5096857;28;20061;-82
2021/12/12 08:07:57;;;;;;;7.77;2.77;;;3.80;99.90;;;;;;5097179;28;20020;-82
2021/12/12 08:10:23;;;;;;;5.30;2.50;;;3.80;99.90;;;;;;5097072;28;20486;-82
2021/12/12 08:12:49;;;;;;;5.30;3.10;;;3.80;99.90;;;;;;5096540;28;20384;-82
2021/12/12 08:15:15;;;;;;;8.13;2.43;;;3.80;99.90;;;;;;5097348;28;20032;-82
2021/12/12 08:17:42;;;;;;;3.77;2.60;;;3.80;99.90;;;;;;5113812;28;20447;-82
2021/12/12 08:20:10;;;;;;;5.90;2.93;;;3.80;99.90;;;;;;5099507;28;20456;-82
2021/12/12 08:22:36;;;;;;;5.23;2.70;;;3.80;99.90;;;;;;5114241;28;20348;-82
2021/12/12 08:25:06;;;;;;;5.70;2.20;;;3.80;99.90;;;;;;5096021;28;20019;-82
2021/12/12 08:27:32;;;;;;;6.03;2.40;;;3.80;99.90;;;;;;5114635;28;20020;-82
2021/12/12 08:29:59;;;;;;;9.43;2.60;;;3.90;99.90;;;;;;5096609;28;20019;-82
2021/12/12 08:32:27;;;;;;;6.53;2.70;;;3.90;99.90;;;;;;5097233;28;20024;-82
2021/12/12 08:34:53;;;;;;;6.07;2.50;;;3.90;99.90;;;;;;5096974;28;20019;-82
2021/12/12 08:37:19;;;;;;;5.83;2.10;;;3.90;99.90;;;;;;5114042;28;20024;-81
2021/12/12 08:39:46;;;;;;;3.20;2.03;;;3.90;99.90;;;;;;5113929;28;20471;-81
2021/12/12 08:42:12;;;;;;;3.67;2.20;;;4.00;99.90;;;;;;5095816;28;20050;-82
2021/12/12 08:44:39;;;;;;;5.37;2.13;;;4.00;99.90;;;;;;5113917;28;20035;-82
2021/12/12 08:47:09;;;;;;;5.17;2.53;;;4.00;99.90;;;;;;5096238;28;20031;-82
2021/12/12 08:49:37;;;;;;;3.73;2.20;;;4.10;99.90;;;;;;5113763;28;20035;-82
2021/12/12 08:52:16;;;;;;;6.33;2.07;;;4.10;99.90;;;;;;5096598;28;20478;-82
2021/12/12 08:54:44;;;;;;;8.53;2.10;;;4.10;99.90;;;;;;5096184;28;20024;-81
2021/12/12 08:57:23;;;;;;;5.63;2.30;;;4.20;99.90;;;;;;5114153;28;20503;-82
2021/12/12 08:59:52;;;;;;;5.37;1.67;;;4.20;99.90;;;;;;5095465;28;20019;-81
2021/12/12 09:02:19;;;;;;;4.67;1.97;;;4.20;99.90;;;;;;5095441;28;20019;-82
2021/12/12 09:04:55;;;;;;;3.47;1.83;;;4.30;99.90;;;;;;5095637;28;20027;-82
2021/12/12 09:07:34;;;;;;;4.77;1.90;;;4.30;99.90;;;;;;5095970;28;20022;-82
2021/12/12 09:10:16;;;;;;;2.57;1.40;;;4.40;99.90;;;;;;5095560;28;20114;-82
2021/12/12 09:12:52;;;;;;;;;;;4.40;99.90;;;;;;5095927;28;20039;-82
2021/12/12 09:15:44;;;;;;;2.17;1.30;;;4.50;99.90;;;;;;5114047;28;19903;-82
2021/12/12 09:18:38;;;;;;;5.93;1.93;;;4.50;99.90;;;;;;5113462;28;20031;-82
2021/12/12 09:21:10;;;;;;;2.83;1.77;;;4.60;99.90;;;;;;5113601;28;20448;-81
2021/12/12 09:23:43;;;;;;;;;;;4.60;99.60;;;;;;5095307;28;20023;-82
2021/12/12 09:26:15;;;;;;;4.40;1.75;;;4.60;99.60;;;;;;5081922;28;19907;-82
2021/12/12 09:29:00;;;;;;;;;;;4.60;99.60;;;;;;5075139;28;20024;-82
2021/12/12 09:31:34;;;;;;;2.17;1.40;;;4.70;99.30;;;;;;5075519;28;19949;-81
2021/12/12 09:34:13;;;;;;;3.20;1.60;;;4.70;99.30;;;;;;5093164;28;20453;-82
2021/12/12 09:36:47;;;;;;;3.57;1.20;;;4.70;99.20;;;;;;5075220;28;20085;-82
2021/12/12 09:39:25;;;;;;;3.47;1.50;;;4.80;99.20;;;;;;5075321;28;20069;-82
2021/12/12 09:42:14;;;;;;;3.93;1.43;;;4.80;99.00;;;;;;5092557;28;20410;-82
2021/12/12 09:45:11;;;;;;;5.00;1.50;;;4.80;99.00;;;;;;5075062;28;20028;-82
2021/12/12 09:53:51;;;;;;;2.65;1.40;;;5.00;98.80;;;;;;5092979;28;20111;-81
2021/12/12 09:56:52;;;;;;;3.07;1.40;;;5.00;98.80;;;;;;5088992;28;20121;-81
2021/12/12 09:59:44;;;;;;;2.50;1.37;;;5.00;98.70;;;;;;4993973;28;20026;-82
2021/12/12 10:02:24;;;;;;;5.80;1.40;;;5.10;98.60;;;;;;5091467;28;20039;-81
2021/12/12 10:05:15;;;;;;;5.87;1.43;;;5.10;98.60;;;;;;5113171;28;20020;-81
2021/12/12 10:08:00;;;;;;;4.97;1.27;;;5.20;98.70;;;;;;5112946;28;20028;-82
2021/12/12 10:10:40;;;;;;;3.50;1.30;;;5.20;98.50;;;;;;5095051;28;20023;-81
2021/12/12 10:13:30;;;;;;;3.97;1.60;;;5.20;98.30;;;;;;5094537;28;20039;-81
2021/12/12 10:16:06;;;;;;;4.30;1.60;;;5.30;98.10;;;;;;5095039;28;20118;-81
2021/12/12 10:18:55;;;;;;;3.87;1.53;;;5.30;98.30;;;;;;5094814;28;20050;-82
2021/12/12 10:21:46;;;;;;;4.50;1.50;;;5.20;98.20;;;;;;5112511;28;20110;-81
2021/12/12 10:24:28;;;;;;;5.23;1.53;;;5.20;98.10;;;;;;5092193;28;20107;-81
2021/12/12 10:27:23;;;;;;;3.47;1.40;;;5.20;97.80;;;;;;5093795;28;20195;-81
2021/12/12 10:30:01;;;;;;;5.87;1.47;;;5.20;97.90;;;;;;5080802;28;20485;-81
2021/12/12 10:32:32;;;;;;;6.00;1.37;;;5.30;98.20;;;;;;5095409;28;20024;-81
2021/12/12 10:35:13;;;;;;;5.30;1.50;;;5.30;97.80;;;;;;5094558;28;20050;-82
2021/12/12 10:37:51;;;;;;;3.73;1.50;;;5.30;97.90;;;;;;5094323;28;20020;-82
2021/12/12 10:40:40;;;;;;;4.20;1.50;;;5.30;97.90;;;;;;5094781;28;20031;-82
2021/12/12 10:43:12;;;;;;;1.83;1.17;;;5.30;97.50;;;;;;5094775;28;20031;-82
2021/12/12 10:45:44;;;;;;;2.88;1.23;;;5.40;97.70;;;;;;5115370;28;20042;-82
2021/12/12 10:48:17;;;;;;;3.58;1.40;;;5.30;97.80;;;;;;5098563;28;20024;-82
2021/12/12 10:50:57;;;;;;;2.60;1.23;;;5.40;97.80;;;;;;5098142;28;20462;-81
2021/12/12 10:53:56;;;;;;;3.13;1.20;;;5.40;97.70;;;;;;5098810;28;20024;-82
2021/12/12 10:56:39;;;;;;;2.83;1.30;;;5.40;97.00;;;;;;5098647;28;20058;-82
2021/12/12 10:59:19;;;;;;;5.70;1.27;;;5.40;97.10;;;;;;5098208;28;20030;-82
2021/12/12 11:01:48;;;;;;;5.97;1.50;;;5.40;97.40;;;;;;5097837;28;20028;-82
2021/12/12 11:04:48;;;;;;;2.47;1.00;;;5.50;97.00;;;;;;5098503;28;20061;-82
2021/12/12 11:07:27;;;;;;;3.17;1.37;;;5.50;96.90;;;;;;5092705;28;20051;-82
2021/12/12 11:10:02;;;;;;;2.77;1.03;;;5.50;96.90;;;;;;5097665;28;20055;-81
2021/12/12 11:12:56;;;;;;;4.20;1.20;;;5.60;97.00;;;;;;5094644;28;20044;-82
2021/12/12 11:15:44;;;;;;;2.63;1.07;;;5.60;96.60;;;;;;5094916;28;20020;-82
2021/12/12 11:18:18;;;;;;;3.53;1.30;;;5.60;97.10;;;;;;5094138;28;20039;-82
2021/12/12 11:21:13;;;;;;;1.83;1.07;;;5.60;97.20;;;;;;5094180;28;20055;-82
2021/12/12 11:23:50;;;;;;;2.40;1.37;;;5.60;96.90;;;;;;5095062;28;20444;-82
2021/12/12 11:26:20;;;;;;;1.97;1.43;;;5.70;97.00;;;;;;5093951;28;20038;-82
2021/12/12 11:28:53;;;;;;;5.70;1.53;;;5.80;97.00;;;;;;5094268;28;20024;-82
2021/12/12 11:31:24;;;;;;;3.40;1.00;;;5.80;97.00;;;;;;5094336;28;20020;-82
2021/12/12 11:33:52;;;;;;;2.13;1.43;;;5.90;96.50;;;;;;5095138;28;20388;-82
2021/12/12 11:36:26;;;;;;;3.67;1.37;;;5.90;96.60;;;;;;5095236;28;20016;-82
2021/12/12 11:39:15;;;;;;;2.40;1.40;;;5.90;96.10;;;;;;5093522;28;20411;-82
2021/12/12 11:42:02;;;;;;;4.07;1.60;;;5.90;96.60;;;;;;5094057;28;20074;-82
2021/12/12 11:44:42;;;;;;;4.20;1.30;;;5.90;96.50;;;;;;5094478;28;20024;-82
2021/12/12 11:47:08;;;;;;;3.43;1.60;;;5.90;96.40;;;;;;5093633;28;20073;-82
2021/12/12 11:50:10;;;;;;;4.40;1.57;;;5.90;96.10;;;;;;5093708;28;20024;-82
2021/12/12 11:52:47;;;;;;;3.78;1.30;;;5.90;95.90;;;;;;5093865;28;20028;-82
2021/12/12 11:55:42;;;;;;;1.80;1.30;;;5.80;96.40;;;;;;5094856;28;20495;-82
2021/12/12 11:58:13;;;;;;;3.07;1.50;;;5.90;96.60;;;;;;5093731;28;20020;-82
2021/12/12 12:00:45;;;;;;;3.08;1.20;;;5.90;96.60;;;;;;5094532;28;20047;-83
2021/12/12 12:03:28;;;;;;;2.63;1.30;;;5.90;96.40;;;;;;5093424;28;20035;-82
2021/12/12 12:06:02;;;;;;;2.13;1.30;;;5.90;96.30;;;;;;5092897;28;20115;-82
2021/12/12 12:09:04;;;;;;;5.33;2.00;;;5.90;96.10;;;;;;5092957;28;20027;-82
2021/12/12 12:11:48;;;;;;;2.27;1.40;;;6.00;96.30;;;;;;5093962;28;20027;-82
2021/12/12 12:14:38;;;;;;;3.83;1.77;;;6.00;95.60;;;;;;5093623;28;20040;-81
2021/12/12 12:17:14;;;;;;;4.03;1.47;;;6.00;95.70;;;;;;5093432;28;20058;-82
2021/12/12 12:20:01;;;;;;;2.30;1.50;;;6.00;95.80;;;;;;5093199;28;20539;-84
2021/12/12 12:22:45;;;;;;;4.40;1.77;;;6.00;95.90;;;;;;5093086;28;20020;-81
2021/12/12 12:26:50;;;;;;;4.73;1.73;;;6.00;95.60;;;;;;5093183;28;20516;-81
2021/12/12 12:28:21;;;;;;;3.27;1.63;;;6.10;96.00;;;;;;5093439;28;20028;-82
2021/12/12 12:31:07;;;;;;;3.93;1.50;;;6.10;95.50;;;;;;5092211;28;20055;-82
2021/12/12 12:33:51;;;;;;;2.90;1.70;;;6.00;95.30;;;;;;5092554;28;20024;-80
2021/12/12 12:36:23;;;;;;;3.47;1.50;;;6.00;95.50;;;;;;5093305;28;20510;-82
2021/12/12 12:39:26;;;;;;;4.55;1.50;;;6.00;95.30;;;;;;5092034;28;20035;-82
2021/12/12 12:42:13;;;;;;;2.63;1.20;;;6.00;95.90;;;;;;5093417;28;20075;-82
2021/12/12 12:44:58;;;;;;;2.60;1.50;;;6.10;95.20;;;;;;5093029;28;20063;-82
2021/12/12 12:47:45;;;;;;;2.37;1.13;;;6.10;95.40;;;;;;5092561;28;20077;-82
2021/12/12 12:50:48;;;;;;;2.50;1.30;;;6.20;95.30;;;;;;5093751;28;20054;-82
2021/12/12 12:53:41;;;;;;;2.90;1.30;;;6.20;94.70;;;;;;5093396;28;20460;-82
2021/12/12 12:56:45;;;;;;;2.17;1.63;;;6.20;94.90;;;;;;5092672;28;20027;-82
2021/12/12 12:59:36;;;;;;;2.43;1.43;;;6.20;94.70;;;;;;5093095;28;20110;-82
2021/12/12 13:02:13;;;;;;;1.70;1.20;;;6.20;95.10;;;;;;5092836;28;20241;-80
2021/12/12 13:04:56;;;;;;;2.23;1.30;;;6.30;95.00;;;;;;5093815;28;20040;-82
2021/12/12 13:08:10;;;;;;;2.37;1.37;;;6.30;94.90;;;;;;5091742;28;20031;-82
2021/12/12 13:10:38;;;;;;;2.97;1.40;;;6.30;94.10;;;;;;5031066;28;20034;-82
2021/12/12 13:13:07;;;;;;;1.83;1.13;;;6.20;94.30;;;;;;5091359;28;20499;-82
2021/12/12 13:16:03;;;;;;;3.43;1.20;;;6.20;94.30;;;;;;5093617;28;20055;-82
2021/12/12 13:18:52;;;;;;;2.23;1.40;;;6.20;94.40;;;;;;5093149;28;20028;-82
2021/12/12 13:21:32;;;;;;;1.97;1.20;;;6.20;94.70;;;;;;5092368;28;20115;-82
2021/12/12 13:24:04;;;;;;;2.43;1.17;;;6.30;94.70;;;;;;5092021;28;20023;-81
2021/12/12 13:26:35;;;;;;;1.77;1.20;;;6.20;94.00;;;;;;5091790;28;20020;-82
2021/12/12 13:29:20;;;;;;;2.63;1.10;;;6.20;94.50;;;;;;5092001;28;20052;-82
2021/12/12 13:32:05;;;;;;;3.17;1.30;;;6.30;94.20;;;;;;5091564;28;20020;-82
2021/12/12 13:34:56;;;;;;;2.47;1.23;;;6.20;94.50;;;;;;5093524;28;20016;-82
2021/12/12 13:37:39;;;;;;;2.35;1.15;;;6.20;94.30;;;;;;5091579;28;20341;-82
2021/12/12 13:40:39;;;;;;;3.20;1.17;;;6.20;94.30;;;;;;5090984;28;20036;-82
2021/12/12 13:43:25;;;;;;;3.63;0.90;;;6.10;94.30;;;;;;5087022;28;20043;-82
2021/12/12 13:46:17;;;;;;;4.73;1.30;;;6.10;93.90;;;;;;5091816;28;20067;-82
2021/12/12 13:49:04;;;;;;;2.88;1.25;;;6.10;94.40;;;;;;5091312;28;20368;-82
2021/12/12 13:52:01;;;;;;;3.77;1.40;;;6.10;94.30;;;;;;5092751;28;20024;-82
2021/12/12 13:54:49;;;;;;;2.70;1.10;;;6.10;94.70;;;;;;5092306;28;20049;-82
2021/12/12 13:57:33;;;;;;;3.70;1.07;;;6.20;94.20;;;;;;5091336;28;20046;-82